Time;durP1;ratioP1;P1;durP2;ratioP2;P2;SDS_P1;SDS_P2;PMS_P1;PMS_P2;Temp;Humidity;BMP_temperature;BMP_pressure;BME280_temperature;BME280_humidity;BME280_pressure;Samples;Min_cycle;Max_cycle;Signal;HPM_P1;HPM_P2
2022/10/06 00:01:03;;;;;;;;;;;19.40;53.60;;;;;;4923537;29;20359;-47
2022/10/06 00:03:30;;;;;;;;;;;19.40;53.60;;;;;;4925920;29;20357;-47
2022/10/06 00:05:59;;;;;;;;;;;19.30;53.50;;;;;;4922366;29;19934;-47
2022/10/06 00:08:26;;;;;;;;;;;19.40;53.60;;;;;;4928906;29;19949;-48
2022/10/06 00:10:54;;;;;;;;;;;19.40;53.60;;;;;;4926018;29;19927;-45
2022/10/06 00:13:21;;;;;;;;;;;19.30;53.50;;;;;;4922441;29;19934;-47
2022/10/06 00:15:48;;;;;;;;;;;19.40;53.60;;;;;;4920768;29;19930;-47
2022/10/06 00:18:16;;;;;;;;;;;19.40;53.60;;;;;;4922347;29;19930;-43
2022/10/06 00:20:43;;;;;;;;;;;19.30;53.30;;;;;;4921656;29;20405;-46
2022/10/06 00:23:10;;;;;;;;;;;19.30;53.30;;;;;;4924592;29;19927;-46
2022/10/06 00:25:37;;;;;;;;;;;19.30;53.50;;;;;;4919544;29;19931;-44
2022/10/06 00:28:04;;;;;;;;;;;19.20;53.50;;;;;;4920994;29;19926;-44
2022/10/06 00:30:31;;;;;;;;;;;19.20;53.70;;;;;;4919968;29;19930;-51
2022/10/06 00:32:59;;;;;;;;;;;19.20;53.80;;;;;;4925146;29;19961;-42
2022/10/06 00:35:28;;;;;;;;;;;19.20;54.00;;;;;;4919647;29;19933;-49
2022/10/06 00:37:55;;;;;;;;;;;19.20;54.00;;;;;;4920502;29;20366;-53
2022/10/06 00:40:23;;;;;;;;;;;19.10;54.10;;;;;;4920672;29;20491;-56
2022/10/06 00:42:51;;;;;;;;;;;19.00;54.10;;;;;;4919773;29;19926;-59
2022/10/06 00:45:20;;;;;;;;;;;18.90;54.00;;;;;;4918396;29;21620;-49
2022/10/06 00:47:47;;;;;;;;;;;18.80;54.10;;;;;;4923276;29;19946;-50
2022/10/06 00:50:14;;;;;;;;;;;18.70;54.20;;;;;;4919157;29;19922;-52
2022/10/06 00:52:43;;;;;;;;;;;18.60;54.30;;;;;;4924435;29;19931;-53
2022/10/06 00:55:10;;;;;;;;;;;18.60;54.40;;;;;;4921094;29;19926;-48
2022/10/06 00:57:38;;;;;;;;;;;18.50;54.60;;;;;;4922456;29;19929;-46
2022/10/06 01:00:06;;;;;;;;;;;18.40;54.70;;;;;;4921803;29;19923;-51
2022/10/06 01:02:34;;;;;;;;;;;18.40;54.70;;;;;;4924010;29;19922;-52
2022/10/06 01:05:02;;;;;;;;;;;18.40;54.90;;;;;;4922426;29;19927;-47
2022/10/06 01:07:29;;;;;;;;;;;18.30;54.90;;;;;;4925949;29;19922;-51
2022/10/06 01:09:58;;;;;;;;;;;18.40;55.10;;;;;;4923746;29;20367;-49
2022/10/06 01:12:25;;;;;;;;;;;18.30;55.10;;;;;;4920409;29;19922;-52
2022/10/06 01:14:52;;;;;;;;;;;18.40;55.20;;;;;;4923106;29;20681;-53
2022/10/06 01:17:21;;;;;;;;;;;18.40;55.30;;;;;;4915151;29;19934;-50
2022/10/06 01:19:50;;;;;;;;;;;18.40;55.30;;;;;;4923141;29;20233;-52
2022/10/06 01:22:20;;;;;;;;;;;18.40;55.30;;;;;;4925883;29;20367;-51
2022/10/06 01:24:51;;;;;;;;;;;18.40;55.30;;;;;;4922443;29;19930;-53
2022/10/06 01:27:18;;;;;;;;;;;18.40;55.30;;;;;;4921398;29;19927;-52
2022/10/06 01:29:45;;;;;;;;;;;18.40;55.30;;;;;;4920604;29;19927;-47
2022/10/06 01:32:12;;;;;;;;;;;18.40;55.30;;;;;;4916908;29;20402;-49
2022/10/06 01:34:39;;;;;;;;;;;18.50;55.30;;;;;;4916077;29;19927;-49
2022/10/06 01:37:06;;;;;;;;;;;18.40;55.20;;;;;;4920938;29;20545;-51
2022/10/06 01:39:33;;;;;;;;;;;18.50;55.20;;;;;;4917154;29;19930;-52
2022/10/06 01:42:01;;;;;;;;;;;18.40;54.90;;;;;;4923845;29;19926;-51
2022/10/06 01:44:28;;;;;;;;;;;18.50;55.00;;;;;;4914343;29;19931;-49
2022/10/06 01:46:55;;;;;;;;;;;18.40;54.90;;;;;;4915739;29;20259;-47
2022/10/06 01:49:22;;;;;;;;;;;18.40;54.90;;;;;;4920115;29;20250;-52
2022/10/06 01:51:49;;;;;;;;;;;18.40;54.90;;;;;;4920194;29;19937;-53
2022/10/06 01:54:16;;;;;;;;;;;18.40;54.90;;;;;;4918844;29;20515;-49
2022/10/06 01:56:43;;;;;;;;;;;18.40;54.80;;;;;;4922412;29;20268;-49
2022/10/06 01:59:11;;;;;;;;;;;18.40;54.70;;;;;;4917997;29;19933;-53
2022/10/06 02:01:38;;;;;;;;;;;18.40;54.40;;;;;;4924762;29;19930;-50
2022/10/06 02:04:05;;;;;;;;;;;18.30;54.40;;;;;;4927410;29;19930;-48
2022/10/06 02:06:32;;;;;;;;;;;18.30;54.40;;;;;;4926181;29;19927;-50
2022/10/06 02:09:00;;;;;;;;;;;18.30;54.50;;;;;;4925240;29;19946;-52
2022/10/06 02:11:27;;;;;;;;;;;18.30;54.50;;;;;;4926665;29;19926;-52
2022/10/06 02:13:54;;;;;;;;;;;18.30;54.40;;;;;;4926229;29;20318;-51
2022/10/06 02:16:22;;;;;;;;;;;18.30;54.50;;;;;;4925660;29;19923;-51
2022/10/06 02:18:49;;;;;;;;;;;18.20;54.40;;;;;;4926634;29;19923;-52
2022/10/06 02:21:17;;;;;;;;;;;18.20;54.40;;;;;;4926082;29;20358;-52
2022/10/06 02:23:43;;;;;;;;;;;18.20;54.30;;;;;;4926471;29;19929;-51
2022/10/06 02:26:11;;;;;;;;;;;18.20;54.20;;;;;;4926778;29;20286;-53
2022/10/06 02:28:38;;;;;;;;;;;18.20;54.10;;;;;;4925311;29;20298;-53
2022/10/06 02:31:07;;;;;;;;;;;18.10;54.20;;;;;;4925861;29;19922;-52
2022/10/06 02:33:35;;;;;;;;;;;18.10;54.20;;;;;;4925722;29;19945;-50
2022/10/06 02:36:03;;;;;;;;;;;18.10;54.30;;;;;;4917085;29;19930;-45
2022/10/06 02:40:01;;;;;;;;;;;18.00;54.30;;;;;;5044498;27;19991;-51
2022/10/06 02:42:28;;;;;;;;;;;18.00;54.30;;;;;;5014413;28;19926;-50
2022/10/06 02:44:58;;;;;;;;;;;18.00;54.40;;;;;;5020217;28;19929;-51
2022/10/06 02:47:25;;;;;;;;;;;17.90;54.30;;;;;;5020519;28;19929;-49
2022/10/06 02:49:52;;;;;;;;;;;17.90;54.40;;;;;;5021528;28;19945;-47
2022/10/06 02:52:19;;;;;;;;;;;17.90;54.40;;;;;;5021163;28;19929;-47
2022/10/06 02:54:45;;;;;;;;;;;17.90;54.40;;;;;;5021025;28;19932;-51
2022/10/06 02:57:15;;;;;;;;;;;17.90;54.30;;;;;;5021348;28;19925;-50
2022/10/06 02:59:42;;;;;;;;;;;17.90;54.30;;;;;;5020841;28;19929;-46
2022/10/06 03:02:09;;;;;;;;;;;17.80;53.90;;;;;;5020228;28;19925;-42
2022/10/06 03:04:36;;;;;;;;;;;17.80;53.90;;;;;;5020527;28;19925;-45
2022/10/06 03:07:03;;;;;;;;;;;17.80;54.00;;;;;;5021173;28;19933;-44
2022/10/06 03:09:30;;;;;;;;;;;17.70;54.60;;;;;;5020856;28;19932;-42
2022/10/06 03:11:57;;;;;;;;;;;17.70;54.10;;;;;;5019108;28;19926;-45
2022/10/06 03:14:25;;;;;;;;;;;17.70;54.10;;;;;;5019453;28;19925;-48
2022/10/06 03:16:53;;;;;;;;;;;17.70;54.10;;;;;;5013628;28;19933;-45
2022/10/06 03:19:20;;;;;;;;;;;17.60;54.00;;;;;;5016657;28;20313;-44
2022/10/06 03:21:47;;;;;;;;;;;17.60;53.90;;;;;;5019872;28;19932;-45
2022/10/06 03:24:14;;;;;;;;;;;17.60;53.90;;;;;;5020958;28;19933;-43
2022/10/06 03:26:42;;;;;;;;;;;17.60;53.70;;;;;;5019313;28;19925;-45
2022/10/06 03:29:10;;;;;;;;;;;17.50;53.70;;;;;;5020402;28;19929;-43
2022/10/06 03:31:39;;;;;;;;;;;17.50;53.90;;;;;;5019499;28;19929;-43
2022/10/06 03:34:06;;;;;;;;;;;17.40;53.90;;;;;;5019981;28;19926;-44
2022/10/06 03:36:34;;;;;;;;;;;17.40;54.00;;;;;;5016510;28;19925;-44
2022/10/06 03:39:01;;;;;;;;;;;17.50;54.00;;;;;;5030885;28;19929;-43
2022/10/06 03:41:29;;;;;;;;;;;17.40;53.90;;;;;;5035831;28;19940;-41
2022/10/06 03:43:56;;;;;;;;;;;17.40;53.90;;;;;;5038836;28;20675;-46
2022/10/06 03:46:24;;;;;;;;;;;17.30;53.70;;;;;;5037793;28;20418;-44
2022/10/06 03:48:53;;;;;;;;;;;17.30;53.70;;;;;;5039256;28;19951;-42
2022/10/06 03:51:21;;;;;;;;;;;17.30;53.40;;;;;;5025216;28;20380;-47
2022/10/06 03:53:49;;;;;;;;;;;17.20;53.50;;;;;;5026330;28;20304;-47
2022/10/06 03:56:18;;;;;;;;;;;17.20;53.40;;;;;;5024707;28;20408;-46
2022/10/06 03:58:46;;;;;;;;;;;17.20;53.50;;;;;;5024869;28;19945;-42
2022/10/06 04:01:14;;;;;;;;;;;17.10;53.50;;;;;;5024479;28;19925;-43
2022/10/06 04:03:41;;;;;;;;;;;17.10;53.60;;;;;;5026043;28;19936;-43
2022/10/06 04:06:12;;;;;;;;;;;17.10;53.60;;;;;;5023899;28;20380;-44
2022/10/06 04:08:39;;;;;;;;;;;17.10;53.70;;;;;;5026071;28;19936;-43
2022/10/06 04:11:07;;;;;;;;;;;17.10;53.70;;;;;;5025712;28;19929;-46
2022/10/06 04:13:35;;;;;;;;;;;17.10;53.70;;;;;;5025836;28;19926;-41
2022/10/06 04:16:09;;;;;;;;;;;17.10;53.70;;;;;;5020334;28;19929;-46
2022/10/06 04:18:37;;;;;;;;;;;17.10;53.80;;;;;;5019727;28;19932;-42
2022/10/06 04:21:04;;;;;;;;;;;17.00;53.70;;;;;;5023263;28;20296;-42
2022/10/06 04:23:32;;;;;;;;;;;17.00;53.70;;;;;;5025838;28;20284;-43
2022/10/06 04:26:00;;;;;;;;;;;17.00;53.60;;;;;;5024898;28;19932;-42
2022/10/06 04:28:27;;;;;;;;;;;17.00;53.70;;;;;;5025376;28;19925;-43
2022/10/06 04:30:57;;;;;;;;;;;17.00;53.80;;;;;;5021681;28;20292;-44
2022/10/06 04:33:24;;;;;;;;;;;17.00;53.80;;;;;;5024641;28;19925;-43
2022/10/06 04:35:56;;;;;;;;;;;16.90;53.80;;;;;;5024546;28;19933;-44
2022/10/06 04:38:23;;;;;;;;;;;16.90;53.80;;;;;;5022468;28;19932;-43
2022/10/06 04:40:52;;;;;;;;;;;16.90;53.80;;;;;;5021151;28;19929;-47
2022/10/06 04:43:19;;;;;;;;;;;16.90;53.80;;;;;;5025202;28;19925;-43
2022/10/06 04:45:46;;;;;;;;;;;16.90;53.80;;;;;;5021544;28;19925;-43
2022/10/06 04:48:13;;;;;;;;;;;16.90;53.70;;;;;;5023452;28;19951;-43
2022/10/06 04:50:40;;;;;;;;;;;16.90;53.70;;;;;;5024454;28;19925;-43
2022/10/06 04:53:07;;;;;;;;;;;16.90;53.60;;;;;;5023102;28;19925;-44
2022/10/06 04:55:34;;;;;;;;;;;16.90;53.70;;;;;;5020826;28;20340;-43
2022/10/06 04:58:02;;;;;;;;;;;16.90;53.60;;;;;;5020500;28;19933;-42
2022/10/06 05:00:29;;;;;;;;;;;16.80;53.60;;;;;;5021953;28;20373;-42
2022/10/06 05:02:56;;;;;;;;;;;16.90;53.60;;;;;;5022063;28;20501;-42
2022/10/06 05:05:23;;;;;;;;;;;16.80;53.50;;;;;;5023252;28;20396;-42
2022/10/06 05:07:50;;;;;;;;;;;16.80;53.50;;;;;;5027967;28;20384;-42
2022/10/06 05:10:17;;;;;;;;;;;16.80;53.50;;;;;;5029407;28;20419;-44
2022/10/06 05:12:44;;;;;;;;;;;16.80;53.40;;;;;;5028260;28;20289;-42
2022/10/06 05:15:13;;;;;;;;;;;16.80;53.40;;;;;;5028099;28;19929;-44
2022/10/06 05:17:40;;;;;;;;;;;16.70;53.40;;;;;;5021936;28;19929;-44
2022/10/06 05:20:09;;;;;;;;;;;16.70;53.40;;;;;;5028663;28;19936;-41
2022/10/06 05:22:36;;;;;;;;;;;16.70;53.40;;;;;;5031799;28;19936;-44
2022/10/06 05:25:03;;;;;;;;;;;16.60;53.40;;;;;;5031279;28;19940;-43
2022/10/06 05:27:30;;;;;;;;;;;16.60;53.30;;;;;;5024816;28;19929;-47
2022/10/06 05:29:57;;;;;;;;;;;16.60;53.30;;;;;;5016890;28;19929;-47
2022/10/06 05:32:26;;;;;;;;;;;16.60;53.20;;;;;;5021933;28;19929;-48
2022/10/06 05:34:53;;;;;;;;;;;16.50;53.10;;;;;;5026093;28;19960;-46
2022/10/06 05:37:21;;;;;;;;;;;16.50;53.10;;;;;;5023684;28;19933;-44
2022/10/06 05:39:48;;;;;;;;;;;16.50;53.10;;;;;;5024000;28;19944;-45
2022/10/06 05:42:16;;;;;;;;;;;16.50;53.10;;;;;;5026473;28;19929;-42
2022/10/06 05:44:43;;;;;;;;;;;16.50;53.10;;;;;;5025648;28;20215;-46
2022/10/06 05:47:10;;;;;;;;;;;16.50;53.10;;;;;;5023883;28;19929;-42
2022/10/06 05:49:39;;;;;;;;;;;16.40;53.10;;;;;;5025649;28;19929;-44
2022/10/06 05:52:07;;;;;;;;;;;16.40;53.10;;;;;;5026287;28;20467;-43
2022/10/06 05:54:34;;;;;;;;;;;16.40;53.20;;;;;;5025767;28;19933;-43
2022/10/06 05:57:01;;;;;;;;;;;16.40;53.20;;;;;;5021955;28;19929;-44
2022/10/06 05:59:29;;;;;;;;;;;16.40;53.20;;;;;;5023594;28;19936;-42
2022/10/06 06:01:56;;;;;;;;;;;16.30;53.10;;;;;;5023548;28;19929;-44
2022/10/06 06:04:24;;;;;;;;;;;16.40;53.20;;;;;;5024286;28;19940;-46
2022/10/06 06:06:52;;;;;;;;;;;16.40;53.20;;;;;;5025302;28;19929;-44
2022/10/06 06:09:20;;;;;;;;;;;16.30;53.10;;;;;;5027911;28;19929;-44
2022/10/06 06:11:48;;;;;;;;;;;16.30;53.20;;;;;;5026091;28;19929;-45
2022/10/06 06:14:17;;;;;;;;;;;16.30;53.20;;;;;;5026545;28;19929;-42
2022/10/06 06:16:43;;;;;;;;;;;16.30;53.20;;;;;;5024045;28;19928;-42
2022/10/06 06:19:12;;;;;;;;;;;16.30;53.10;;;;;;5020968;28;19925;-44
2022/10/06 06:21:39;;;;;;;;;;;16.30;53.10;;;;;;5022608;28;19945;-45
2022/10/06 06:24:08;;;;;;;;;;;16.30;53.10;;;;;;5024223;28;19929;-43
2022/10/06 06:26:36;;;;;;;;;;;16.30;53.10;;;;;;5023209;28;20686;-45
2022/10/06 06:29:05;;;;;;;;;;;16.30;53.10;;;;;;5024255;28;20203;-48
2022/10/06 06:31:32;;;;;;;;;;;16.30;53.10;;;;;;5018878;28;19925;-46
2022/10/06 06:34:01;;;;;;;;;;;16.30;53.10;;;;;;5031428;28;20318;-42
2022/10/06 06:36:31;;;;;;;;;;;16.30;53.10;;;;;;5032106;28;19925;-43
2022/10/06 06:38:58;;;;;;;;;;;16.20;53.10;;;;;;5024458;28;19941;-44
2022/10/06 06:41:27;;;;;;;;;;;16.30;53.10;;;;;;5024039;28;19929;-47
2022/10/06 06:43:54;;;;;;;;;;;16.30;53.10;;;;;;5031617;28;19940;-43
2022/10/06 06:46:23;;;;;;;;;;;16.30;53.60;;;;;;5030125;28;20304;-41
2022/10/06 06:48:50;;;;;;;;;;;16.20;53.10;;;;;;5030728;28;19932;-44
2022/10/06 06:51:20;;;;;;;;;;;16.30;53.20;;;;;;5027998;28;19929;-44
2022/10/06 06:53:47;;;;;;;;;;;16.30;53.20;;;;;;5028273;28;19940;-43
2022/10/06 06:56:13;;;;;;;;;;;16.30;53.10;;;;;;5026893;28;19925;-48
2022/10/06 06:58:46;;;;;;;;;;;16.30;53.10;;;;;;5026972;28;20384;-44
2022/10/06 07:01:14;;;;;;;;;;;16.30;53.10;;;;;;5025304;28;19929;-45
2022/10/06 07:03:41;;;;;;;;;;;16.30;53.10;;;;;;5026019;28;19929;-48
2022/10/06 07:06:09;;;;;;;;;;;16.30;53.00;;;;;;5022446;28;20376;-46
2022/10/06 07:08:37;;;;;;;;;;;16.30;53.10;;;;;;5027328;28;19928;-46
2022/10/06 07:11:10;;;;;;;;;;;16.30;53.00;;;;;;5027103;28;19929;-45
2022/10/06 07:13:37;;;;;;;;;;;16.40;52.90;;;;;;5027898;28;19929;-44
2022/10/06 07:27:05;;;;;;;;;;;16.30;52.80;;;;;;5039310;28;19937;-46
2022/10/06 07:29:32;;;;;;;;;;;16.40;52.80;;;;;;5030005;28;20324;-47
2022/10/06 07:32:00;;;;;;;;;;;16.30;52.80;;;;;;5033285;28;19925;-44
2022/10/06 07:34:29;;;;;;;;;;;16.30;52.70;;;;;;5031059;28;19939;-46
2022/10/06 07:36:56;;;;;;;;;;;16.30;52.80;;;;;;5032717;28;19929;-45
2022/10/06 07:39:23;;;;;;;;;;;16.30;52.80;;;;;;5030126;28;19929;-44
2022/10/06 07:41:50;;;;;;;;;;;16.40;52.80;;;;;;5030739;28;20304;-46
2022/10/06 07:44:17;;;;;;;;;;;16.30;52.80;;;;;;5031821;28;19955;-44
2022/10/06 07:46:44;;;;;;;;;;;16.30;52.80;;;;;;5030545;28;20380;-43
2022/10/06 07:49:16;;;;;;;;;;;16.30;52.80;;;;;;5026691;28;19925;-47
2022/10/06 07:51:43;;;;;;;;;;;16.30;52.80;;;;;;5029625;28;19929;-45
2022/10/06 07:54:10;;;;;;;;;;;16.40;52.80;;;;;;5031016;28;19937;-46
2022/10/06 07:56:37;;;;;;;;;;;16.30;52.80;;;;;;5025820;28;19929;-48
2022/10/06 07:59:04;;;;;;;;;;;16.30;52.80;;;;;;5027424;28;19929;-46
2022/10/06 08:01:31;;;;;;;;;;;16.40;52.90;;;;;;5026331;28;19936;-44
2022/10/06 08:03:57;;;;;;;;;;;16.30;52.80;;;;;;5026283;28;19933;-44
2022/10/06 08:06:26;;;;;;;;;;;16.40;52.90;;;;;;5030185;28;19940;-42
2022/10/06 08:08:53;;;;;;;;;;;16.40;52.90;;;;;;5026270;28;19929;-45
2022/10/06 08:11:21;;;;;;;;;;;16.40;52.90;;;;;;5028603;28;20393;-46
2022/10/06 08:13:49;;;;;;;;;;;16.40;53.00;;;;;;5032445;28;19932;-47
2022/10/06 08:16:17;;;;;;;;;;;16.40;53.10;;;;;;5032891;28;19929;-43
2022/10/06 08:18:48;;;;;;;;;;;16.40;53.00;;;;;;5027927;28;19936;-45
2022/10/06 08:21:15;;;;;;;;;;;16.40;53.00;;;;;;5032219;28;19933;-46
2022/10/06 08:23:44;;;;;;;;;;;16.40;53.00;;;;;;5032445;28;19940;-49
2022/10/06 08:26:12;;;;;;;;;;;16.50;53.00;;;;;;5033051;28;19929;-47
2022/10/06 08:28:39;;;;;;;;;;;16.50;53.00;;;;;;5030774;28;19929;-45
2022/10/06 08:31:07;;;;;;;;;;;16.50;53.00;;;;;;5030503;28;19944;-42
2022/10/06 08:33:37;;;;;;;;;;;16.50;53.00;;;;;;5031802;28;20351;-46
2022/10/06 08:36:04;;;;;;;;;;;16.60;53.00;;;;;;5027955;28;19929;-47
2022/10/06 08:38:32;;;;;;;;;;;16.60;53.10;;;;;;5028506;28;19940;-46
2022/10/06 08:41:00;;;;;;;;;;;16.60;53.10;;;;;;5030611;28;19925;-42
2022/10/06 08:43:28;;;;;;;;;;;16.60;53.10;;;;;;5031247;28;21238;-46
2022/10/06 08:45:59;;;;;;;;;;;16.70;53.00;;;;;;5025833;28;19929;-43
2022/10/06 08:48:27;;;;;;;;;;;16.70;53.00;;;;;;5031160;28;20293;-49
2022/10/06 08:51:00;;;;;;;;;;;16.70;53.00;;;;;;5026120;28;19933;-43
2022/10/06 08:53:31;;;;;;;;;;;16.80;53.60;;;;;;5027376;28;19929;-46
2022/10/06 08:56:04;;;;;;;;;;;16.80;53.10;;;;;;5030480;28;19936;-47
2022/10/06 08:58:37;;;;;;;;;;;16.80;53.00;;;;;;5029458;28;19936;-44
2022/10/06 09:01:12;;;;;;;;;;;16.90;53.10;;;;;;5029866;28;19928;-42
2022/10/06 09:03:39;;;;;;;;;;;16.90;52.50;;;;;;5033239;28;20380;-44
2022/10/06 09:06:08;;;;;;;;;;;16.90;52.70;;;;;;5032364;28;19932;-48
2022/10/06 09:08:41;;;;;;;;;;;16.90;52.40;;;;;;5030853;28;20396;-43
2022/10/06 09:11:16;;;;;;;;;;;17.00;52.60;;;;;;5031723;28;19925;-44
2022/10/06 09:13:46;;;;;;;;;;;17.00;52.50;;;;;;5033006;28;19943;-45
2022/10/06 09:16:15;;;;;;;;;;;17.00;52.50;;;;;;5032375;28;19925;-45
2022/10/06 09:18:45;;;;;;;;;;;17.10;52.60;;;;;;5031528;28;19936;-43
2022/10/06 09:21:14;;;;;;;;;;;17.10;52.60;;;;;;5031376;28;20399;-44
2022/10/06 09:23:49;;;;;;;;;;;17.20;52.60;;;;;;5031324;28;20316;-42
2022/10/06 09:26:18;;;;;;;;;;;17.20;52.50;;;;;;5028217;28;20270;-47
2022/10/06 09:28:46;;;;;;;;;;;17.20;52.50;;;;;;5029852;28;19933;-42
2022/10/06 09:31:18;;;;;;;;;;;17.30;51.90;;;;;;5029179;28;19933;-45
2022/10/06 09:33:46;;;;;;;;;;;17.30;51.80;;;;;;5030309;28;19936;-44
2022/10/06 09:36:14;;;;;;;;;;;17.30;51.40;;;;;;5030076;28;19936;-42
2022/10/06 09:38:51;;;;;;;;;;;17.30;51.30;;;;;;5027131;28;20361;-43
2022/10/06 09:41:21;;;;;;;;;;;17.40;51.50;;;;;;5028873;28;19928;-46
2022/10/06 09:43:52;;;;;;;;;;;17.40;51.00;;;;;;5029448;28;19932;-47
2022/10/06 09:46:20;;;;;;;;;;;17.40;51.40;;;;;;5029057;28;19952;-43
2022/10/06 09:48:47;;;;;;;;;;;17.40;51.40;;;;;;5028192;28;19925;-44
2022/10/06 09:51:15;;;;;;;;;;;17.50;51.50;;;;;;5028591;28;19929;-42
2022/10/06 09:53:42;;;;;;;;;;;17.50;51.40;;;;;;5032024;28;19925;-46
2022/10/06 09:56:14;;;;;;;;;;;17.60;51.00;;;;;;5032601;28;19928;-42
2022/10/06 09:58:52;;;;;;;;;;;17.60;49.40;;;;;;5029455;28;19932;-44
2022/10/06 10:01:22;;;;;;;;;;;17.60;49.90;;;;;;5030088;28;20459;-43
2022/10/06 10:03:50;;;;;;;;;;;17.60;49.90;;;;;;5032484;28;19933;-46
2022/10/06 10:06:21;;;;;;;;;;;17.70;50.00;;;;;;5032125;28;19929;-44
2022/10/06 10:08:48;;;;;;;;;;;17.70;50.10;;;;;;5029906;28;19936;-45
2022/10/06 10:14:17;;;;;;;;;;;17.80;50.20;;;;;;5008727;28;19925;-42
2022/10/06 10:16:44;;;;;;;;;;;17.80;48.60;;;;;;5028520;28;19926;-43
2022/10/06 10:19:21;;;;;;;;;;;17.80;48.70;;;;;;5027631;28;19933;-43
2022/10/06 10:21:48;;;;;;;;;;;17.80;48.60;;;;;;5027871;28;19948;-44
2022/10/06 10:24:19;;;;;;;;;;;17.80;49.00;;;;;;5028457;28;19947;-46
2022/10/06 10:26:52;;;;;;;;;;;17.90;49.20;;;;;;5027503;28;19933;-49
2022/10/06 10:29:29;;;;;;;;;;;17.90;49.20;;;;;;5025866;28;20304;-46
2022/10/06 10:32:03;;;;;;;;;;;18.00;49.30;;;;;;5026206;28;19932;-47
2022/10/06 10:34:42;;;;;;;;;;;18.10;49.30;;;;;;5026047;28;19928;-46
2022/10/06 10:37:12;;;;;;;;;;;18.10;48.80;;;;;;5027864;28;19932;-45
2022/10/06 10:39:41;;;;;;;;;;;18.20;48.00;;;;;;5026362;28;19925;-45
2022/10/06 10:42:12;;;;;;;;;;;18.20;46.60;;;;;;5028658;28;19936;-45
2022/10/06 10:44:43;;;;;;;;;;;18.30;47.10;;;;;;5030699;28;19929;-43
2022/10/06 10:47:14;;;;;;;;;;;18.30;47.60;;;;;;5030626;28;19929;-44
2022/10/06 10:49:43;;;;;;;;;;;18.30;47.60;;;;;;5030997;28;20308;-45
2022/10/06 10:52:11;;;;;;;;;;;18.40;47.50;;;;;;5028544;28;19933;-41
2022/10/06 10:54:40;;;;;;;;;;;18.40;47.80;;;;;;5029632;28;19928;-42
2022/10/06 10:57:11;;;;;;;;;;;18.40;47.10;;;;;;5030569;28;19929;-44
2022/10/06 10:59:41;;;;;;;;;;;18.40;47.30;;;;;;5027966;28;20388;-44
2022/10/06 11:02:12;;;;;;;;;;;18.50;47.70;;;;;;5030973;28;19932;-43
2022/10/06 11:04:41;;;;;;;;;;;18.50;46.80;;;;;;5031196;28;19929;-44
2022/10/06 11:07:18;;;;;;;;;;;18.60;47.20;;;;;;5031517;28;19936;-42
2022/10/06 11:09:48;;;;;;;;;;;18.60;47.10;;;;;;5030369;28;19928;-43
2022/10/06 11:12:19;;;;;;;;;;;18.60;46.60;;;;;;5031572;28;19929;-41
2022/10/06 11:14:52;;;;;;;;;;;18.60;45.20;;;;;;5031749;28;19933;-43
2022/10/06 11:17:27;;;;;;;;;;;18.60;45.30;;;;;;5029047;28;19937;-47
2022/10/06 11:19:57;;;;;;;;;;;18.70;45.60;;;;;;5029955;28;19933;-43
2022/10/06 11:22:31;;;;;;;;;;;18.70;45.80;;;;;;5028456;28;19935;-46
2022/10/06 11:25:01;;;;;;;;;;;18.70;45.00;;;;;;5029932;28;19929;-43
2022/10/06 11:27:36;;;;;;;;;;;18.70;45.20;;;;;;5030926;28;20307;-45
2022/10/06 11:30:05;;;;;;;;;;;18.70;43.70;;;;;;5028068;28;19935;-45
2022/10/06 11:32:39;;;;;;;;;;;18.70;45.00;;;;;;5028688;28;19925;-46
2022/10/06 11:35:15;;;;;;;;;;;18.70;45.80;;;;;;5030488;28;19929;-45
2022/10/06 11:37:46;;;;;;;;;;;18.80;46.00;;;;;;5029834;28;20373;-44
2022/10/06 11:40:20;;;;;;;;;;;18.80;46.20;;;;;;5027102;28;19928;-44
2022/10/06 11:42:50;;;;;;;;;;;18.80;46.20;;;;;;5031690;28;19929;-45
2022/10/06 11:45:21;;;;;;;;;;;18.90;46.10;;;;;;5030730;28;20476;-46
2022/10/06 11:47:59;;;;;;;;;;;18.90;45.70;;;;;;5029975;28;19929;-44
2022/10/06 11:50:33;;;;;;;;;;;18.90;44.30;;;;;;5030145;28;19932;-45
2022/10/06 11:53:00;;;;;;;;;;;18.90;45.10;;;;;;5027431;28;19933;-47
2022/10/06 11:55:27;;;;;;;;;;;18.90;45.40;;;;;;5026727;28;20292;-43
2022/10/06 11:58:19;;;;;;;;;;;19.00;45.60;;;;;;5027270;28;19925;-44
2022/10/06 12:00:49;;;;;;;;;;;19.00;43.00;;;;;;5024116;28;20300;-46
2022/10/06 12:03:44;;;;;;;;;;;19.00;41.60;;;;;;5027086;28;19929;-40
2022/10/06 12:06:25;;;;;;;;;;;19.00;42.30;;;;;;5026827;28;19925;-40
2022/10/06 12:08:52;;;;;;;;;;;19.00;42.80;;;;;;5025466;28;19929;-43
2022/10/06 12:11:38;;;;;;;;;;;19.00;43.50;;;;;;5022776;28;19929;-45
2022/10/06 12:14:11;;;;;;;;;;;19.00;44.00;;;;;;5023971;28;19936;-45
2022/10/06 12:16:42;;;;;;;;;;;19.00;43.40;;;;;;5025720;28;19926;-41
2022/10/06 12:19:18;;;;;;;;;;;19.00;43.20;;;;;;5025635;28;19932;-45
2022/10/06 12:21:50;;;;;;;;;;;19.10;43.70;;;;;;5025821;28;20262;-43
2022/10/06 12:24:24;;;;;;;;;;;19.10;42.00;;;;;;5025246;28;19933;-45
2022/10/06 12:26:54;;;;;;;;;;;19.20;42.80;;;;;;5024867;28;20309;-44
2022/10/06 12:29:28;;;;;;;;;;;19.20;43.20;;;;;;5024159;28;19933;-44
2022/10/06 12:32:00;;;;;;;;;;;19.30;42.50;;;;;;5025080;28;19926;-42
2022/10/06 12:34:45;;;;;;;;;;;19.30;43.20;;;;;;5024813;28;19936;-43
2022/10/06 12:37:34;;;;;;;;;;;19.30;41.80;;;;;;5024363;28;19925;-42
2022/10/06 12:40:20;;;;;;;;;;;19.40;43.00;;;;;;5024295;28;21372;-42
2022/10/06 12:42:47;;;;;;;;;;;19.40;42.20;;;;;;5026197;28;19929;-43
2022/10/06 12:45:16;;;;;;;;;;;19.40;42.20;;;;;;5024132;28;19925;-42
2022/10/06 12:47:44;;;;;;;;;;;19.40;42.40;;;;;;5025513;28;20384;-41
2022/10/06 12:50:15;;;;;;;;;;;19.50;42.90;;;;;;5026203;28;20357;-41
2022/10/06 12:52:46;;;;;;;;;;;19.50;42.80;;;;;;5025878;28;20396;-41
2022/10/06 12:55:20;;;;;;;;;;;19.60;42.20;;;;;;5025769;28;19925;-42
2022/10/06 12:57:48;;;;;;;;;;;19.60;42.20;;;;;;5026205;28;20373;-43
2022/10/06 13:00:29;;;;;;;;;;;19.60;41.90;;;;;;5025516;28;19929;-44
2022/10/06 13:02:57;;;;;;;;;;;19.60;42.40;;;;;;5025653;28;20294;-44
2022/10/06 13:05:24;;;;;;;;;;;19.70;42.20;;;;;;5024131;28;19962;-45
2022/10/06 13:07:57;;;;;;;;;;;19.70;42.00;;;;;;5024264;28;19925;-43
2022/10/06 13:10:24;;;;;;;;;;;19.80;42.50;;;;;;5023489;28;19928;-41
2022/10/06 13:12:51;;;;;;;;;;;19.80;42.20;;;;;;5023107;28;19932;-45
2022/10/06 13:15:20;;;;;;;;;;;19.80;42.60;;;;;;5021959;28;20311;-43
2022/10/06 13:17:49;;;;;;;;;;;19.90;42.60;;;;;;5024300;28;19932;-43
2022/10/06 13:20:34;;;;;;;;;;;19.90;42.40;;;;;;5024541;28;20411;-43
2022/10/06 13:23:03;;;;;;;;;;;19.90;42.70;;;;;;5023608;28;19925;-43
2022/10/06 13:25:35;;;;;;;;;;;20.00;42.90;;;;;;5025496;28;19932;-43
2022/10/06 13:28:03;;;;;;;;;;;20.00;42.20;;;;;;5023725;28;19932;-44
2022/10/06 13:30:30;;;;;;;;;;;20.00;40.10;;;;;;5021593;28;19925;-42
2022/10/06 13:32:57;;;;;;;;;;;20.00;41.10;;;;;;5023957;28;19929;-44
2022/10/06 13:35:25;;;;;;;;;;;20.00;40.90;;;;;;5025130;28;19925;-42
2022/10/06 13:37:53;;;;;;;;;;;20.00;40.70;;;;;;5024164;28;19929;-43
2022/10/06 13:40:30;;;;;;;;;;;20.00;41.50;;;;;;5022941;28;20459;-44
2022/10/06 13:42:58;;;;;;;;;;;20.00;41.70;;;;;;5018970;28;19929;-48
2022/10/06 13:45:26;;;;;;;;;;;20.00;40.70;;;;;;5021307;28;20340;-46
2022/10/06 13:48:03;;;;;;;;;;;20.00;39.00;;;;;;5025799;28;20357;-42
2022/10/06 13:50:30;;;;;;;;;;;20.00;40.10;;;;;;5024434;28;20300;-43
2022/10/06 13:52:57;;;;;;;;;;;20.10;40.80;;;;;;5024371;28;19940;-44
2022/10/06 13:55:25;;;;;;;;;;;20.10;39.90;;;;;;5024608;28;19928;-42
2022/10/06 13:58:05;;;;;;;;;;;20.00;38.00;;;;;;5024923;28;19936;-44
2022/10/06 14:00:32;;;;;;;;;;;20.00;38.80;;;;;;5023450;28;20293;-51
2022/10/06 14:03:08;;;;;;;;;;;20.00;39.50;;;;;;5025303;28;20284;-44
2022/10/06 14:05:36;;;;;;;;;;;20.00;40.30;;;;;;5024825;28;19925;-44
2022/10/06 14:08:14;;;;;;;;;;;20.00;40.60;;;;;;5024637;28;20389;-41
2022/10/06 14:10:45;;;;;;;;;;;20.00;40.60;;;;;;5024030;28;19929;-46
2022/10/06 14:13:16;;;;;;;;;;;20.00;40.20;;;;;;5024731;28;19948;-44
2022/10/06 14:15:46;;;;;;;;;;;20.00;40.40;;;;;;5021354;28;20236;-42
2022/10/06 14:18:18;;;;;;;;;;;20.10;40.80;;;;;;5023184;28;19937;-44
2022/10/06 14:20:48;;;;;;;;;;;20.00;39.60;;;;;;5022390;28;19925;-46
2022/10/06 14:23:34;;;;;;;;;;;20.00;39.70;;;;;;5023444;28;19925;-45
2022/10/06 14:26:02;;;;;;;;;;;20.00;38.90;;;;;;5022473;28;19925;-41
2022/10/06 14:28:30;;;;;;;;;;;20.00;39.30;;;;;;5024337;28;19925;-45
2022/10/06 14:30:57;;;;;;;;;;;20.00;38.80;;;;;;5020785;28;19929;-42
2022/10/06 14:33:24;;;;;;;;;;;20.00;38.00;;;;;;5024467;28;19929;-42
2022/10/06 14:35:51;;;;;;;;;;;20.00;39.10;;;;;;5022693;28;19929;-43
2022/10/06 14:38:19;;;;;;;;;;;20.00;39.90;;;;;;5022582;28;19940;-41
2022/10/06 14:40:46;;;;;;;;;;;20.00;40.30;;;;;;5021062;28;19932;-45
2022/10/06 14:43:13;;;;;;;;;;;20.00;40.60;;;;;;5023242;28;19929;-42